Time;durP1;ratioP1;P1;durP2;ratioP2;P2;SDS_P1;SDS_P2;PMS_P1;PMS_P2;Temp;Humidity;BMP_temperature;BMP_pressure;BME280_temperature;BME280_humidity;BME280_pressure;Samples;Min_cycle;Max_cycle;Signal;HPM_P1;HPM_P2
2021/09/06 00:00:11;;;;;;;8.02;1.23;;;;;;;;;;5082974;28;20361;-48
2021/09/06 00:02:39;;;;;;;11.93;1.50;;;;;;;;;;5080449;28;20036;-42
2021/09/06 00:05:09;;;;;;;13.88;1.38;;;;;;;;;;5082050;28;20027;-50
2021/09/06 00:07:42;;;;;;;6.05;1.70;;;;;;;;;;5076958;28;20067;-51
2021/09/06 00:10:21;;;;;;;6.32;1.67;;;;;;;;;;5077495;28;20115;-50
2021/09/06 00:12:48;;;;;;;6.88;1.63;;;;;;;;;;5085079;28;20056;-49
2021/09/06 00:15:15;;;;;;;14.68;1.58;;;;;;;;;;5091837;28;20055;-49
2021/09/06 00:17:42;;;;;;;10.65;1.48;;;;;;;;;;5093799;28;20035;-48
2021/09/06 00:20:10;;;;;;;10.80;1.30;;;;;;;;;;5090077;28;20115;-47
2021/09/06 00:22:37;;;;;;;10.40;2.20;;;;;;;;;;5085256;28;20031;-44
2021/09/06 00:25:04;;;;;;;15.00;1.60;;;;;;;;;;5092027;28;20031;-47
2021/09/06 00:27:31;;;;;;;6.25;1.38;;;;;;;;;;5075969;28;20059;-50
2021/09/06 00:29:58;;;;;;;4.70;1.25;;;;;;;;;;5079552;28;20055;-48
2021/09/06 00:32:25;;;;;;;12.02;1.85;;;;;;;;;;5089495;28;20038;-48
2021/09/06 00:34:52;;;;;;;6.90;1.45;;;;;;;;;;5083477;28;20039;-46
2021/09/06 00:37:19;;;;;;;6.63;1.90;;;;;;;;;;5093417;28;20032;-49
2021/09/06 00:39:46;;;;;;;4.30;1.17;;;;;;;;;;5088559;28;20094;-47
2021/09/06 00:42:15;;;;;;;6.75;1.20;;;;;;;;;;5081283;28;20446;-51
2021/09/06 00:44:43;;;;;;;6.50;1.50;;;;;;;;;;5080317;28;20415;-45
2021/09/06 00:47:10;;;;;;;10.07;1.75;;;;;;;;;;5075032;28;20067;-48
2021/09/06 00:49:37;;;;;;;7.22;1.10;;;;;;;;;;5077590;28;20031;-47
2021/09/06 00:52:04;;;;;;;7.38;1.40;;;;;;;;;;5086203;28;20020;-44
2021/09/06 00:54:32;;;;;;;15.65;1.55;;;;;;;;;;5079556;28;20408;-47
2021/09/06 00:57:00;;;;;;;9.90;1.77;;;;;;;;;;5076847;28;20044;-43
2021/09/06 00:59:27;;;;;;;11.82;1.63;;;;;;;;;;5077188;28;20029;-46
2021/09/06 01:01:54;;;;;;;4.95;1.52;;;;;;;;;;5077660;28;20029;-51
2021/09/06 01:04:21;;;;;;;9.50;1.60;;;;;;;;;;5078570;28;20024;-44
2021/09/06 01:06:48;;;;;;;8.52;1.30;;;;;;;;;;5075907;28;20083;-48
2021/09/06 01:09:15;;;;;;;5.57;1.10;;;;;;;;;;5077607;28;20050;-48
2021/09/06 01:11:42;;;;;;;5.82;1.15;;;;;;;;;;5080586;28;21022;-53
2021/09/06 01:14:09;;;;;;;21.10;1.60;;;;;;;;;;5079168;28;20020;-47
2021/09/06 01:16:36;;;;;;;9.75;1.50;;;;;;;;;;5077865;28;20055;-47
2021/09/06 01:19:03;;;;;;;9.85;1.90;;;;;;;;;;5071202;28;20123;-45
2021/09/06 01:21:30;;;;;;;13.75;2.08;;;;;;;;;;5077032;28;20013;-47
2021/09/06 01:23:58;;;;;;;14.52;1.25;;;;;;;;;;5170580;22;20071;-50
2021/09/06 01:26:25;;;;;;;7.50;1.45;;;;;;;;;;5062891;28;20029;-46
2021/09/06 01:28:53;;;;;;;9.13;1.58;;;;;;;;;;5064632;28;20025;-45
2021/09/06 01:31:22;;;;;;;13.35;2.08;;;;;;;;;;5065561;28;20060;-45
2021/09/06 01:33:49;;;;;;;7.60;1.30;;;;;;;;;;5064619;28;20032;-46
2021/09/06 01:36:16;;;;;;;26.55;3.35;;;;;;;;;;5064762;28;20017;-45
2021/09/06 01:38:43;;;;;;;19.55;2.80;;;;;;;;;;5059045;28;20036;-44
2021/09/06 01:41:11;;;;;;;18.80;2.85;;;;;;;;;;5068334;28;20066;-52
2021/09/06 01:43:38;;;;;;;15.20;2.78;;;;;;;;;;5066474;28;20566;-42
2021/09/06 01:46:05;;;;;;;11.82;2.28;;;;;;;;;;5064125;28;20021;-47
2021/09/06 01:48:32;;;;;;;14.35;2.97;;;;;;;;;;5059986;28;20025;-51
2021/09/06 01:50:59;;;;;;;15.90;3.55;;;;;;;;;;5048092;28;20031;-48
2021/09/06 01:53:26;;;;;;;15.25;3.22;;;;;;;;;;5045721;28;20053;-45
2021/09/06 01:55:53;;;;;;;23.45;3.40;;;;;;;;;;5039839;28;20406;-46
2021/09/06 01:58:20;;;;;;;22.90;3.75;;;;;;;;;;5069054;28;20045;-43
2021/09/06 02:00:47;;;;;;;9.93;2.75;;;;;;;;;;5068114;28;20020;-49
2021/09/06 02:03:14;;;;;;;17.27;3.35;;;;;;;;;;5045703;28;20016;-42
2021/09/06 02:05:41;;;;;;;15.60;3.80;;;;;;;;;;5052223;28;20027;-43
2021/09/06 02:08:08;;;;;;;13.02;3.05;;;;;;;;;;5059050;28;20020;-44
2021/09/06 02:10:36;;;;;;;16.23;3.88;;;;;;;;;;5061843;28;20024;-43
2021/09/06 02:13:02;;;;;;;14.13;3.17;;;;;;;;;;5065350;28;20495;-53
2021/09/06 02:15:30;;;;;;;13.15;3.50;;;;;;;;;;5037003;28;20086;-44
2021/09/06 02:17:57;;;;;;;12.00;3.78;;;;;;;;;;5027490;28;20040;-56
2021/09/06 02:20:24;;;;;;;10.38;2.97;;;;;;;;;;5040188;28;20032;-46
2021/09/06 02:22:51;;;;;;;12.18;2.83;;;;;;;;;;5034220;28;20451;-45
2021/09/06 02:25:18;;;;;;;11.68;2.63;;;;;;;;;;5065087;28;20126;-44
2021/09/06 02:27:45;;;;;;;13.75;3.35;;;;;;;;;;5055585;28;20491;-50
2021/09/06 02:30:12;;;;;;;7.68;2.97;;;;;;;;;;5057924;28;20035;-43
2021/09/06 02:32:39;;;;;;;15.40;3.00;;;;;;;;;;5065101;28;20411;-43
2021/09/06 02:35:07;;;;;;;15.52;2.85;;;;;;;;;;5057696;28;20120;-42
2021/09/06 02:37:34;;;;;;;9.57;2.70;;;;;;;;;;5060709;28;20041;-49
2021/09/06 02:40:01;;;;;;;14.85;2.75;;;;;;;;;;5064595;28;20047;-49
2021/09/06 02:42:28;;;;;;;13.27;2.97;;;;;;;;;;5067059;28;20028;-46
2021/09/06 02:44:55;;;;;;;9.90;2.40;;;;;;;;;;5080967;28;20039;-45
2021/09/06 02:47:22;;;;;;;13.73;2.45;;;;;;;;;;5074318;28;20387;-46
2021/09/06 02:49:49;;;;;;;15.00;2.50;;;;;;;;;;5077650;28;20092;-53
2021/09/06 02:52:16;;;;;;;9.35;2.70;;;;;;;;;;5074664;28;20021;-54
2021/09/06 02:54:43;;;;;;;10.63;2.17;;;;;;;;;;5063509;28;20021;-51
2021/09/06 02:57:10;;;;;;;14.48;2.20;;;;;;;;;;5081267;28;20028;-49
2021/09/06 02:59:37;;;;;;;12.27;2.60;;;;;;;;;;5079921;28;20017;-51
2021/09/06 03:02:05;;;;;;;9.35;2.25;;;;;;;;;;5084061;28;20031;-43
2021/09/06 03:04:32;;;;;;;6.80;2.35;;;;;;;;;;5078486;28;20013;-47
2021/09/06 03:06:59;;;;;;;9.95;2.10;;;;;;;;;;5082470;28;20091;-50
2021/09/06 03:09:26;;;;;;;6.88;2.35;;;;;;;;;;5075415;28;20032;-48
2021/09/06 03:11:53;;;;;;;11.55;2.20;;;;;;;;;;5077123;28;20032;-51
2021/09/06 03:14:20;;;;;;;10.43;2.95;;;;;;;;;;5080581;28;20020;-53
2021/09/06 03:16:47;;;;;;;8.27;2.40;;;;;;;;;;5079074;28;20376;-58
2021/09/06 03:19:14;;;;;;;4.43;1.73;;;;;;;;;;5081985;28;20526;-55
2021/09/06 03:21:41;;;;;;;10.30;2.33;;;;;;;;;;5078400;28;20024;-59
2021/09/06 03:24:08;;;;;;;8.32;2.20;;;;;;;;;;5080935;28;20047;-59
2021/09/06 03:26:35;;;;;;;5.70;1.80;;;;;;;;;;5086679;28;20027;-58
2021/09/06 03:29:03;;;;;;;7.38;2.08;;;;;;;;;;5083901;28;20016;-59
2021/09/06 03:31:33;;;;;;;10.15;2.72;;;;;;;;;;5083852;28;20486;-57
2021/09/06 03:34:00;;;;;;;3.60;1.70;;;;;;;;;;5073268;28;20486;-58
2021/09/06 03:36:28;;;;;;;4.00;1.40;;;;;;;;;;5073537;28;20032;-58
2021/09/06 03:38:55;;;;;;;5.53;1.60;;;;;;;;;;5070715;28;20119;-54
2021/09/06 03:41:23;;;;;;;9.65;1.90;;;;;;;;;;5072143;28;20079;-58
2021/09/06 03:43:51;;;;;;;6.38;1.73;;;;;;;;;;5038629;28;20431;-48
2021/09/06 03:46:18;;;;;;;6.18;2.10;;;;;;;;;;5065562;28;20107;-45
2021/09/06 03:48:45;;;;;;;4.60;1.52;;;;;;;;;;5072710;28;20048;-50
2021/09/06 03:51:12;;;;;;;6.75;2.13;;;;;;;;;;5072647;28;20028;-45
2021/09/06 03:53:39;;;;;;;8.73;1.60;;;;;;;;;;5072834;28;20071;-44
2021/09/06 03:56:06;;;;;;;7.15;1.80;;;;;;;;;;5072617;28;20024;-44
2021/09/06 03:58:32;;;;;;;5.80;1.55;;;;;;;;;;5072285;28;20419;-44
2021/09/06 04:01:00;;;;;;;5.25;1.60;;;;;;;;;;5072756;28;20017;-46
2021/09/06 04:03:26;;;;;;;7.63;1.40;;;;;;;;;;5072076;28;20024;-45
2021/09/06 04:05:54;;;;;;;3.88;1.38;;;;;;;;;;5072443;28;20063;-46
2021/09/06 04:08:22;;;;;;;4.65;1.58;;;;;;;;;;5072112;28;20024;-44
2021/09/06 04:10:49;;;;;;;4.82;1.52;;;;;;;;;;5072244;28;20032;-44
2021/09/06 04:13:16;;;;;;;4.47;1.42;;;;;;;;;;5072071;28;20022;-45
2021/09/06 04:15:45;;;;;;;5.00;1.48;;;;;;;;;;5072169;28;20086;-46
2021/09/06 04:18:12;;;;;;;4.88;1.40;;;;;;;;;;5071730;28;20028;-44
2021/09/06 04:20:39;;;;;;;3.95;1.40;;;;;;;;;;5072133;28;20527;-44
2021/09/06 04:23:06;;;;;;;4.38;1.10;;;;;;;;;;5051816;28;20016;-43
2021/09/06 04:25:33;;;;;;;3.65;1.25;;;;;;;;;;5072049;28;20055;-52
2021/09/06 04:28:00;;;;;;;5.15;1.20;;;;;;;;;;5071814;28;20028;-46
2021/09/06 04:30:27;;;;;;;2.85;1.23;;;;;;;;;;5072091;28;20827;-57
2021/09/06 04:32:54;;;;;;;3.13;1.30;;;;;;;;;;5071818;28;20407;-46
2021/09/06 04:35:21;;;;;;;5.55;1.27;;;;;;;;;;5071664;28;20146;-44
2021/09/06 04:37:48;;;;;;;3.83;1.52;;;;;;;;;;5072252;28;20056;-47
2021/09/06 04:40:15;;;;;;;5.03;1.30;;;;;;;;;;5071577;28;20020;-48
2021/09/06 04:42:42;;;;;;;3.83;1.38;;;;;;;;;;5071954;28;20109;-45
2021/09/06 04:45:09;;;;;;;3.72;1.23;;;;;;;;;;5070982;28;20028;-46
2021/09/06 04:47:36;;;;;;;3.53;1.08;;;;;;;;;;5071877;28;20024;-56
2021/09/06 04:50:04;;;;;;;3.47;1.40;;;;;;;;;;5071309;28;20024;-50
2021/09/06 04:52:31;;;;;;;4.18;1.27;;;;;;;;;;5057776;28;20019;-55
2021/09/06 04:54:58;;;;;;;2.88;1.00;;;;;;;;;;5071381;28;20017;-52
2021/09/06 04:57:25;;;;;;;2.53;0.90;;;;;;;;;;5071150;28;20032;-47
2021/09/06 04:59:52;;;;;;;4.63;1.05;;;;;;;;;;5070991;28;20016;-47
2021/09/06 05:02:19;;;;;;;3.10;1.20;;;;;;;;;;5071481;28;20028;-47
2021/09/06 05:04:46;;;;;;;4.43;1.30;;;;;;;;;;5071886;28;20368;-46
2021/09/06 05:07:13;;;;;;;4.00;1.27;;;;;;;;;;5070640;28;20025;-46
2021/09/06 05:09:40;;;;;;;2.42;1.05;;;;;;;;;;5071877;28;20021;-43
2021/09/06 05:12:07;;;;;;;3.33;0.90;;;;;;;;;;5059582;28;20025;-48
2021/09/06 05:14:34;;;;;;;3.38;1.08;;;;;;;;;;5068245;28;20089;-43
2021/09/06 05:17:01;;;;;;;3.85;0.90;;;;;;;;;;5074157;28;20060;-43
2021/09/06 05:19:28;;;;;;;2.92;1.10;;;;;;;;;;5071954;28;20379;-42
2021/09/06 05:21:55;;;;;;;2.75;1.13;;;;;;;;;;5073381;28;20449;-43
2021/09/06 05:24:22;;;;;;;4.45;1.40;;;;;;;;;;5081386;28;20128;-44
2021/09/06 05:26:49;;;;;;;4.22;1.25;;;;;;;;;;5091457;28;20122;-47
2021/09/06 05:29:16;;;;;;;4.22;0.90;;;;;;;;;;5093233;28;20479;-44
2021/09/06 05:31:43;;;;;;;2.72;1.05;;;;;;;;;;5095413;28;20055;-42
2021/09/06 05:34:10;;;;;;;2.47;0.90;;;;;;;;;;5091658;28;20028;-46
2021/09/06 05:36:37;;;;;;;3.50;0.90;;;;;;;;;;5090736;28;20012;-44
2021/09/06 05:39:04;;;;;;;3.05;1.10;;;;;;;;;;5091797;28;20032;-43
2021/09/06 05:41:32;;;;;;;3.35;1.25;;;;;;;;;;5091250;28;20459;-43
2021/09/06 05:43:58;;;;;;;2.38;1.05;;;;;;;;;;5091031;28;20056;-47
2021/09/06 05:46:25;;;;;;;3.33;1.17;;;;;;;;;;5091195;28;20024;-43
2021/09/06 05:48:52;;;;;;;2.55;0.73;;;;;;;;;;5090806;28;20016;-48
2021/09/06 05:51:19;;;;;;;2.28;0.90;;;;;;;;;;5091086;28;20028;-50
2021/09/06 05:53:46;;;;;;;3.55;1.20;;;;;;;;;;5088570;28;20023;-52
2021/09/06 05:56:18;;;;;;;2.08;0.93;;;;;;;;;;5091120;28;20111;-51
2021/09/06 05:58:45;;;;;;;2.20;0.80;;;;;;;;;;5089561;28;20047;-58
2021/09/06 06:01:12;;;;;;;2.72;1.00;;;;;;;;;;5091322;28;20536;-54
2021/09/06 06:03:39;;;;;;;3.33;0.90;;;;;;;;;;5090946;28;20130;-50
2021/09/06 06:06:06;;;;;;;3.38;0.88;;;;;;;;;;5091080;28;20150;-50
2021/09/06 06:08:33;;;;;;;2.28;0.80;;;;;;;;;;5090421;28;20025;-43
2021/09/06 06:11:00;;;;;;;1.88;0.77;;;;;;;;;;5091179;28;20075;-48
2021/09/06 06:13:27;;;;;;;1.85;0.80;;;;;;;;;;5090598;28;20165;-45
2021/09/06 06:15:54;;;;;;;2.25;0.98;;;;;;;;;;5090586;28;20385;-44
2021/09/06 06:18:21;;;;;;;2.63;0.80;;;;;;;;;;5090860;28;20290;-50
2021/09/06 06:20:48;;;;;;;3.05;0.85;;;;;;;;;;5090782;28;20118;-43
2021/09/06 06:23:15;;;;;;;1.65;0.90;;;;;;;;;;5090827;28;20020;-42
2021/09/06 06:25:42;;;;;;;2.60;0.85;;;;;;;;;;5091047;28;20033;-43
2021/09/06 06:28:09;;;;;;;2.58;0.90;;;;;;;;;;5102391;28;20023;-44
2021/09/06 06:30:36;;;;;;;1.20;0.65;;;;;;;;;;5109397;28;20027;-43
2021/09/06 06:33:04;;;;;;;3.45;1.30;;;;;;;;;;5086688;28;20518;-43
2021/09/06 06:35:31;;;;;;;4.35;0.98;;;;;;;;;;5065017;28;20032;-45
2021/09/06 06:37:57;;;;;;;1.88;0.80;;;;;;;;;;5090806;28;20399;-47
2021/09/06 06:40:24;;;;;;;3.92;0.95;;;;;;;;;;5088253;28;20463;-46
2021/09/06 06:42:52;;;;;;;1.77;0.65;;;;;;;;;;5080777;28;20395;-44
2021/09/06 06:45:19;;;;;;;2.58;0.80;;;;;;;;;;5080964;28;20025;-45
2021/09/06 06:47:45;;;;;;;3.00;0.98;;;;;;;;;;5082800;28;20020;-46
2021/09/06 06:50:13;;;;;;;3.67;0.75;;;;;;;;;;5079265;28;20411;-43
2021/09/06 06:52:41;;;;;;;5.05;0.98;;;;;;;;;;5085432;28;20020;-48
2021/09/06 06:55:08;;;;;;;2.70;0.85;;;;;;;;;;5085374;28;20497;-43
2021/09/06 06:57:35;;;;;;;2.63;0.90;;;;;;;;;;5105609;28;20024;-43
2021/09/06 07:00:04;;;;;;;2.33;0.90;;;;;;;;;;5089605;28;20027;-50
2021/09/06 07:02:31;;;;;;;1.88;0.80;;;;;;;;;;5099003;28;20035;-43
2021/09/06 07:04:58;;;;;;;2.55;0.60;;;;;;;;;;5087597;28;20024;-51
2021/09/06 07:07:25;;;;;;;1.67;0.80;;;;;;;;;;5093340;28;20027;-45
2021/09/06 07:09:52;;;;;;;1.98;0.82;;;;;;;;;;5093879;28;20483;-43
2021/09/06 07:12:19;;;;;;;2.17;0.77;;;;;;;;;;5094440;28;20039;-46
2021/09/06 07:14:46;;;;;;;1.88;0.77;;;;;;;;;;5093595;28;20031;-45
2021/09/06 07:17:13;;;;;;;1.33;0.60;;;;;;;;;;5094227;28;20410;-44
2021/09/06 07:19:41;;;;;;;1.55;0.73;;;;;;;;;;5093496;28;20024;-44
2021/09/06 07:22:08;;;;;;;1.60;0.60;;;;;;;;;;5094443;28;20063;-43
2021/09/06 07:24:35;;;;;;;3.60;0.93;;;;;;;;;;5094025;28;20045;-44
2021/09/06 07:27:02;;;;;;;1.65;0.63;;;;;;;;;;5093359;28;20024;-43
2021/09/06 07:29:29;;;;;;;3.03;0.85;;;;;;;;;;5093879;28;20020;-43
2021/09/06 07:31:56;;;;;;;1.23;0.60;;;;;;;;;;5093364;28;20422;-52
2021/09/06 07:34:23;;;;;;;2.10;0.60;;;;;;;;;;5093832;28;20020;-56
2021/09/06 07:36:50;;;;;;;1.90;0.70;;;;;;;;;;5093448;28;20031;-55
2021/09/06 07:39:17;;;;;;;2.10;0.60;;;;;;;;;;5093773;28;20028;-54
2021/09/06 07:41:45;;;;;;;2.20;0.65;;;;;;;;;;5092765;28;20093;-53
2021/09/06 07:44:12;;;;;;;2.17;0.50;;;;;;;;;;5083923;28;20503;-46
2021/09/06 07:46:39;;;;;;;1.95;0.73;;;;;;;;;;5098431;28;20020;-44
2021/09/06 07:49:06;;;;;;;1.95;0.70;;;;;;;;;;5103251;28;20410;-43
2021/09/06 07:51:33;;;;;;;2.72;0.90;;;;;;;;;;5098914;28;20016;-44
2021/09/06 07:54:01;;;;;;;1.05;0.80;;;;;;;;;;5101566;28;20019;-50
2021/09/06 07:56:29;;;;;;;2.85;0.60;;;;;;;;;;5099524;28;20016;-44
2021/09/06 07:58:55;;;;;;;3.08;0.90;;;;;;;;;;5099565;28;20375;-51
2021/09/06 08:01:22;;;;;;;1.05;0.60;;;;;;;;;;5095018;28;20487;-46
2021/09/06 08:03:49;;;;;;;2.60;0.80;;;;;;;;;;5093136;28;20028;-43
2021/09/06 08:06:16;;;;;;;0.95;0.52;;;;;;;;;;5093263;28;20403;-47
2021/09/06 08:08:43;;;;;;;1.70;0.63;;;;;;;;;;5093486;28;20107;-42
2021/09/06 08:11:10;;;;;;;2.25;0.70;;;;;;;;;;5092525;28;20020;-43
2021/09/06 08:13:37;;;;;;;1.85;0.57;;;;;;;;;;5093180;28;20091;-43
2021/09/06 08:16:05;;;;;;;1.27;0.55;;;;;;;;;;5092641;28;20016;-42
2021/09/06 08:18:32;;;;;;;4.22;0.80;;;;;;;;;;5093159;28;20482;-56
2021/09/06 08:20:58;;;;;;;2.80;0.90;;;;;;;;;;5092583;28;20016;-47
2021/09/06 08:23:25;;;;;;;1.80;0.80;;;;;;;;;;5092726;28;20016;-48
2021/09/06 08:25:53;;;;;;;1.63;0.65;;;;;;;;;;5092446;28;20039;-58
2021/09/06 08:28:19;;;;;;;0.88;0.55;;;;;;;;;;5092996;28;20103;-57
2021/09/06 08:30:46;;;;;;;2.70;0.73;;;;;;;;;;5092833;28;20020;-56
2021/09/06 08:33:13;;;;;;;1.92;0.98;;;;;;;;;;5092548;28;20020;-58
2021/09/06 08:35:41;;;;;;;2.45;0.90;;;;;;;;;;5093006;28;20103;-58
2021/09/06 08:38:08;;;;;;;1.25;0.80;;;;;;;;;;5092039;28;20032;-50
2021/09/06 08:40:35;;;;;;;3.70;1.25;;;;;;;;;;5092195;28;20020;-59
2021/09/06 08:43:04;;;;;;;2.83;0.70;;;;;;;;;;5092304;28;20450;-56
2021/09/06 08:45:32;;;;;;;2.10;0.88;;;;;;;;;;5092449;28;20028;-56
2021/09/06 08:47:59;;;;;;;2.30;1.00;;;;;;;;;;5092162;28;20027;-53
2021/09/06 08:50:26;;;;;;;3.15;0.90;;;;;;;;;;5092305;28;20066;-55
2021/09/06 08:52:54;;;;;;;1.90;0.70;;;;;;;;;;5092149;28;20099;-56
2021/09/06 08:55:21;;;;;;;0.82;0.60;;;;;;;;;;5092256;28;20020;-57
2021/09/06 08:57:48;;;;;;;3.45;0.88;;;;;;;;;;5091931;28;20020;-49
2021/09/06 09:00:15;;;;;;;3.10;1.10;;;;;;;;;;5092235;28;20030;-56
2021/09/06 09:02:42;;;;;;;1.42;0.80;;;;;;;;;;5092179;28;20032;-45
2021/09/06 09:05:11;;;;;;;2.28;0.90;;;;;;;;;;5091733;28;20020;-42
2021/09/06 09:07:39;;;;;;;4.85;1.00;;;;;;;;;;5092314;28;20383;-42
2021/09/06 09:10:09;;;;;;;3.45;1.30;;;;;;;;;;5091589;28;20019;-48
2021/09/06 09:12:37;;;;;;;3.63;1.20;;;;;;;;;;5092380;28;20418;-48
2021/09/06 09:15:05;;;;;;;3.35;1.10;;;;;;;;;;5091504;28;20031;-48
2021/09/06 09:17:34;;;;;;;3.30;1.25;;;;;;;;;;5092128;28;20043;-55
2021/09/06 09:20:02;;;;;;;3.95;1.08;;;;;;;;;;5091209;28;20027;-44
2021/09/06 09:22:39;;;;;;;2.92;1.08;;;;;;;;;;5089985;28;20024;-51
2021/09/06 09:25:08;;;;;;;4.20;1.20;;;;;;;;;;5091049;28;20047;-52
2021/09/06 09:27:35;;;;;;;1.83;1.23;;;;;;;;;;5091334;28;20026;-48
2021/09/06 09:30:04;;;;;;;1.83;1.10;;;;;;;;;;5095397;28;20474;-42
2021/09/06 09:32:33;;;;;;;2.20;0.98;;;;;;;;;;5091726;28;20414;-46
2021/09/06 09:35:03;;;;;;;2.80;1.05;;;;;;;;;;5091571;28;20020;-44
2021/09/06 09:37:30;;;;;;;2.75;1.40;;;;;;;;;;5082186;28;20507;-45
2021/09/06 09:39:58;;;;;;;2.42;1.27;;;;;;;;;;5061106;28;20115;-46
2021/09/06 09:42:26;;;;;;;2.10;0.90;;;;;;;;;;5064852;28;20067;-45
2021/09/06 09:44:56;;;;;;;4.13;1.33;;;;;;;;;;5060977;28;20103;-43
2021/09/06 09:47:26;;;;;;;4.38;1.20;;;;;;;;;;5063812;28;20070;-50
2021/09/06 09:49:58;;;;;;;4.85;1.40;;;;;;;;;;5096576;28;20038;-43
2021/09/06 09:52:25;;;;;;;1.55;1.15;;;;;;;;;;5102621;28;20016;-42
2021/09/06 09:54:54;;;;;;;2.08;1.17;;;;;;;;;;5104870;28;20035;-47
2021/09/06 09:57:25;;;;;;;3.72;1.10;;;;;;;;;;5102926;28;20360;-45
2021/09/06 09:59:52;;;;;;;1.85;1.10;;;;;;;;;;5110489;28;20039;-46
2021/09/06 10:02:31;;;;;;;2.40;1.20;;;;;;;;;;5090814;28;20095;-44
2021/09/06 10:05:01;;;;;;;3.38;1.23;;;;;;;;;;5090876;28;20020;-44
2021/09/06 10:07:31;;;;;;;4.75;1.40;;;;;;;;;;5092778;28;20050;-43
2021/09/06 10:09:58;;;;;;;3.58;1.40;;;;;;;;;;5095001;28;20375;-51
2021/09/06 10:12:32;;;;;;;3.17;1.30;;;;;;;;;;5095705;28;20016;-46
2021/09/06 10:15:03;;;;;;;2.10;1.08;;;;;;;;;;5094740;28;20028;-43
2021/09/06 10:17:37;;;;;;;5.55;1.75;;;;;;;;;;5092310;28;20025;-52
2021/09/06 10:20:16;;;;;;;1.88;1.13;;;;;;;;;;5095620;28;20028;-44
2021/09/06 10:22:45;;;;;;;3.40;1.38;;;;;;;;;;5094898;28;20070;-52
2021/09/06 10:25:16;;;;;;;4.28;1.30;;;;;;;;;;5094588;28;20054;-44
2021/09/06 10:28:14;;;;;;;3.83;1.30;;;;;;;;;;5095454;28;20082;-46
2021/09/06 10:30:44;;;;;;;3.22;1.33;;;;;;;;;;5095165;28;20043;-48
2021/09/06 10:33:23;;;;;;;3.83;1.48;;;;;;;;;;5094813;28;20031;-50
2021/09/06 10:35:50;;;;;;;1.90;1.00;;;;;;;;;;5082298;28;20012;-47
2021/09/06 10:38:17;;;;;;;4.50;1.20;;;;;;;;;;5095082;28;20032;-47
2021/09/06 10:40:45;;;;;;;3.35;1.33;;;;;;;;;;5081131;28;20378;-51
2021/09/06 10:43:13;;;;;;;2.83;1.40;;;;;;;;;;5094472;28;20035;-58
2021/09/06 10:45:41;;;;;;;2.95;1.17;;;;;;;;;;5094850;28;20035;-54
2021/09/06 10:48:08;;;;;;;2.78;1.20;;;;;;;;;;5094487;28;20033;-51
2021/09/06 10:50:38;;;;;;;4.43;1.42;;;;;;;;;;5094534;28;20039;-43
2021/09/06 10:53:05;;;;;;;2.90;1.45;;;;;;;;;;5094207;28;20427;-51
2021/09/06 10:55:32;;;;;;;2.42;1.30;;;;;;;;;;5094889;28;20403;-45
2021/09/06 10:58:00;;;;;;;2.63;1.13;;;;;;;;;;5094221;28;20386;-52
2021/09/06 11:00:27;;;;;;;2.80;1.20;;;;;;;;;;5094791;28;20028;-49
2021/09/06 11:02:54;;;;;;;1.92;1.10;;;;;;;;;;5093722;28;20522;-42
2021/09/06 11:05:22;;;;;;;2.33;1.30;;;;;;;;;;5094730;28;20078;-42
2021/09/06 11:07:50;;;;;;;3.47;1.08;;;;;;;;;;5094609;28;20032;-46
2021/09/06 11:10:19;;;;;;;4.05;1.30;;;;;;;;;;5094099;28;20047;-49
2021/09/06 11:12:57;;;;;;;3.22;1.20;;;;;;;;;;5092936;28;20028;-51
2021/09/06 11:15:31;;;;;;;2.38;1.27;;;;;;;;;;5091103;28;20028;-42
2021/09/06 11:18:05;;;;;;;2.25;1.20;;;;;;;;;;5098262;28;20124;-45
2021/09/06 11:20:34;;;;;;;2.20;0.95;;;;;;;;;;5107485;28;20016;-55
2021/09/06 11:23:02;;;;;;;4.30;1.23;;;;;;;;;;5088302;28;20028;-43
2021/09/06 11:25:29;;;;;;;2.72;1.17;;;;;;;;;;5097307;28;20546;-52
2021/09/06 11:28:13;;;;;;;1.95;1.02;;;;;;;;;;5098617;28;20020;-45
2021/09/06 11:30:42;;;;;;;4.00;1.40;;;;;;;;;;5094310;28;20047;-59
2021/09/06 11:33:10;;;;;;;2.90;1.02;;;;;;;;;;5061522;28;20353;-53
2021/09/06 11:35:37;;;;;;;2.22;1.20;;;;;;;;;;5092213;28;20016;-57
2021/09/06 11:38:05;;;;;;;2.30;1.02;;;;;;;;;;5098407;28;20039;-49
2021/09/06 11:40:32;;;;;;;3.63;1.15;;;;;;;;;;5097253;28;20028;-55
2021/09/06 11:43:00;;;;;;;3.95;1.20;;;;;;;;;;5088937;28;20084;-54
2021/09/06 11:45:27;;;;;;;3.22;1.20;;;;;;;;;;5094924;28;20028;-52
2021/09/06 11:48:00;;;;;;;2.15;1.10;;;;;;;;;;5101205;28;20019;-48
2021/09/06 11:50:29;;;;;;;3.42;1.08;;;;;;;;;;5104352;28;20024;-47
2021/09/06 11:53:00;;;;;;;1.52;0.90;;;;;;;;;;5107827;28;20128;-49
2021/09/06 11:55:28;;;;;;;4.22;0.88;;;;;;;;;;5104146;28;20046;-50
2021/09/06 11:58:05;;;;;;;10.23;1.80;;;;;;;;;;5090122;28;20101;-46
2021/09/06 12:00:32;;;;;;;3.00;1.10;;;;;;;;;;5090335;28;20024;-42
2021/09/06 12:03:00;;;;;;;7.97;1.10;;;;;;;;;;5094503;28;20048;-54
2021/09/06 12:05:37;;;;;;;2.22;0.90;;;;;;;;;;5092291;28;20028;-43
2021/09/06 12:08:04;;;;;;;4.13;1.50;;;;;;;;;;5091078;28;20032;-57
2021/09/06 12:10:32;;;;;;;1.52;1.00;;;;;;;;;;5090940;28;20478;-52
2021/09/06 12:13:00;;;;;;;1.80;0.93;;;;;;;;;;5090517;28;20032;-47
2021/09/06 12:15:28;;;;;;;3.17;0.85;;;;;;;;;;5092241;28;20454;-45
2021/09/06 12:18:06;;;;;;;9.80;1.08;;;;;;;;;;5091970;28;20433;-44
2021/09/06 12:38:57;;;;;;;10.23;1.42;;;;;;;;;;5119629;27;20670;-51
2021/09/06 12:41:27;;;;;;;6.07;1.40;;;;;;;;;;5112201;28;20035;-46
2021/09/06 12:43:54;;;;;;;10.40;1.50;;;;;;;;;;5114873;28;20016;-52
2021/09/06 12:46:21;;;;;;;3.28;1.13;;;;;;;;;;5128968;28;20015;-49
2021/09/06 12:48:48;;;;;;;8.73;1.40;;;;;;;;;;5127766;28;20020;-57
2021/09/06 12:51:15;;;;;;;3.53;1.30;;;;;;;;;;5128201;28;20080;-45
2021/09/06 12:53:42;;;;;;;3.28;1.17;;;;;;;;;;5118678;28;20027;-50
2021/09/06 12:56:11;;;;;;;4.85;1.50;;;;;;;;;;5128000;28;20466;-47
2021/09/06 12:58:38;;;;;;;8.15;1.55;;;;;;;;;;5116288;28;20024;-47
2021/09/06 13:01:05;;;;;;;6.05;1.73;;;;;;;;;;5118494;28;20502;-45
2021/09/06 13:03:32;;;;;;;5.60;1.33;;;;;;;;;;5122029;28;20032;-46
2021/09/06 13:05:59;;;;;;;4.03;1.48;;;;;;;;;;5117198;28;20078;-45
2021/09/06 13:08:28;;;;;;;4.47;1.23;;;;;;;;;;5123237;28;20044;-47
2021/09/06 13:10:55;;;;;;;4.10;1.40;;;;;;;;;;5126502;28;20025;-45
2021/09/06 13:13:22;;;;;;;6.03;1.42;;;;;;;;;;5108151;28;20042;-42
2021/09/06 13:15:49;;;;;;;3.72;1.20;;;;;;;;;;5109455;28;20028;-46
2021/09/06 13:18:20;;;;;;;4.32;1.35;;;;;;;;;;5106625;28;20429;-44
2021/09/06 13:20:48;;;;;;;8.18;1.50;;;;;;;;;;5125363;28;20026;-46
2021/09/06 13:23:15;;;;;;;5.55;1.60;;;;;;;;;;5114276;28;20732;-47
2021/09/06 13:25:42;;;;;;;5.45;1.30;;;;;;;;;;5096791;28;20024;-48
2021/09/06 13:28:09;;;;;;;3.90;1.15;;;;;;;;;;5114350;28;20027;-49
2021/09/06 13:30:36;;;;;;;5.82;1.38;;;;;;;;;;5089192;28;20016;-51
2021/09/06 13:33:03;;;;;;;7.53;1.27;;;;;;;;;;5099564;28;20476;-49
2021/09/06 13:35:30;;;;;;;6.15;1.95;;;;;;;;;;5101302;28;20023;-50
2021/09/06 13:37:57;;;;;;;4.05;1.38;;;;;;;;;;5115572;28;20047;-48
2021/09/06 13:40:24;;;;;;;5.78;1.40;;;;;;;;;;5078394;28;20485;-46
2021/09/06 13:42:51;;;;;;;6.05;1.67;;;;;;;;;;5071070;28;20036;-42
2021/09/06 13:45:18;;;;;;;3.03;1.30;;;;;;;;;;5076402;28;20027;-43
2021/09/06 13:47:45;;;;;;;5.97;1.42;;;;;;;;;;5083039;28;20039;-43
2021/09/06 13:50:12;;;;;;;7.30;1.63;;;;;;;;;;5069967;28;20016;-44
2021/09/06 13:52:39;;;;;;;8.43;1.77;;;;;;;;;;5077271;28;20024;-46
2021/09/06 13:55:06;;;;;;;11.68;1.83;;;;;;;;;;5078954;28;20168;-45
2021/09/06 13:57:33;;;;;;;4.82;1.55;;;;;;;;;;5081046;28;20690;-42
2021/09/06 14:00:00;;;;;;;9.23;1.55;;;;;;;;;;5082258;28;20105;-39
2021/09/06 14:02:27;;;;;;;12.70;1.65;;;;;;;;;;5085919;28;20044;-42
2021/09/06 14:04:55;;;;;;;9.52;1.58;;;;;;;;;;5085246;28;20024;-42
2021/09/06 14:07:22;;;;;;;9.00;1.45;;;;;;;;;;5105744;28;20020;-43
2021/09/06 14:09:49;;;;;;;13.50;1.83;;;;;;;;;;5097858;28;20023;-44
2021/09/06 14:12:16;;;;;;;5.80;1.38;;;;;;;;;;5080403;28;20023;-44
2021/09/06 14:14:43;;;;;;;3.83;1.50;;;;;;;;;;5101347;28;20142;-41
2021/09/06 14:17:12;;;;;;;8.43;1.45;;;;;;;;;;5095359;28;20028;-42
2021/09/06 14:19:40;;;;;;;7.22;1.55;;;;;;;;;;5092293;28;20024;-45
2021/09/06 14:22:07;;;;;;;6.85;1.83;;;;;;;;;;5088939;28;20564;-49
2021/09/06 14:24:34;;;;;;;3.33;1.50;;;;;;;;;;5096215;28;20080;-44
2021/09/06 14:27:02;;;;;;;4.22;1.60;;;;;;;;;;5098541;28;20168;-43
2021/09/06 14:29:29;;;;;;;6.15;1.25;;;;;;;;;;5093146;28;20030;-42
2021/09/06 14:31:56;;;;;;;4.68;1.40;;;;;;;;;;5091220;28;20016;-42
2021/09/06 14:34:23;;;;;;;6.05;1.50;;;;;;;;;;5085750;28;20043;-41
2021/09/06 14:36:51;;;;;;;8.05;1.40;;;;;;;;;;5093820;28;20055;-42
2021/09/06 14:39:18;;;;;;;5.10;1.30;;;;;;;;;;5100935;28;20447;-49
2021/09/06 14:41:45;;;;;;;5.68;1.50;;;;;;;;;;5085393;28;20035;-44
2021/09/06 14:44:12;;;;;;;8.23;1.52;;;;;;;;;;5088286;28;20020;-40
2021/09/06 14:46:39;;;;;;;6.65;1.20;;;;;;;;;;5109371;28;20034;-40
2021/09/06 14:49:06;;;;;;;4.78;1.50;;;;;;;;;;5103295;28;20740;-37
2021/09/06 14:51:33;;;;;;;6.15;1.20;;;;;;;;;;5101018;28;20096;-46
2021/09/06 14:54:00;;;;;;;7.53;1.30;;;;;;;;;;5099911;28;20103;-41
2021/09/06 14:56:27;;;;;;;3.80;1.25;;;;;;;;;;5080281;28;20024;-41
2021/09/06 14:58:54;;;;;;;12.65;1.27;;;;;;;;;;5099553;28;20032;-43
2021/09/06 15:01:21;;;;;;;8.20;1.50;;;;;;;;;;5081416;28;20078;-43